Time;durP1;ratioP1;P1;durP2;ratioP2;P2;SDS_P1;SDS_P2;PMS_P1;PMS_P2;Temp;Humidity;BMP_temperature;BMP_pressure;BME280_temperature;BME280_humidity;BME280_pressure;Samples;Min_cycle;Max_cycle;Signal;HPM_P1;HPM_P2
2023/10/12 00:02:16;;;;;;;4.20;3.73;;;23.10;48.00;;;;;;4995018;28;20473;-59
2023/10/12 00:04:43;;;;;;;3.63;3.40;;;23.10;48.10;;;;;;4982398;28;20216;-59
2023/10/12 00:07:16;;;;;;;3.30;3.10;;;23.10;48.00;;;;;;4983733;28;20548;-59
2023/10/12 00:09:48;;;;;;;3.13;2.93;;;23.10;48.00;;;;;;4999953;28;20447;-58
2023/10/12 00:12:15;;;;;;;3.73;3.50;;;23.10;48.00;;;;;;4987003;28;20558;-58
2023/10/12 00:14:41;;;;;;;4.30;4.00;;;23.10;48.00;;;;;;5009860;28;20460;-59
2023/10/12 00:17:07;;;;;;;3.50;3.20;;;23.10;48.00;;;;;;4993912;28;20449;-59
2023/10/12 00:19:33;;;;;;;4.60;4.30;;;23.10;48.00;;;;;;5002869;28;20278;-58
2023/10/12 00:22:08;;;;;;;3.30;3.10;;;23.10;48.00;;;;;;4991441;28;20271;-58
2023/10/12 00:24:33;;;;;;;3.70;3.50;;;23.10;48.00;;;;;;4986483;28;20472;-58
2023/10/12 00:26:59;;;;;;;3.63;3.43;;;23.10;48.00;;;;;;4998911;28;20817;-61
2023/10/12 00:29:24;;;;;;;3.50;3.30;;;23.10;48.00;;;;;;4996153;28;20327;-58
2023/10/12 00:31:52;;;;;;;3.60;3.40;;;23.10;48.00;;;;;;4984653;28;20231;-59
2023/10/12 00:34:23;;;;;;;3.60;3.30;;;23.10;48.00;;;;;;4986891;28;20263;-60
2023/10/12 00:36:52;;;;;;;3.37;3.17;;;23.10;48.00;;;;;;5005605;28;20444;-64
2023/10/12 00:39:20;;;;;;;3.20;3.00;;;23.10;48.00;;;;;;4985526;28;20791;-62
2023/10/12 00:41:45;;;;;;;3.80;3.00;;;23.10;48.00;;;;;;4985261;28;20481;-60
2023/10/12 00:46:40;;;;;;;3.27;3.07;;;23.10;48.10;;;;;;4982193;28;20836;-62
2023/10/12 00:49:22;;;;;;;3.27;3.07;;;23.10;48.10;;;;;;4982896;28;20678;-61
2023/10/12 00:51:53;;;;;;;3.40;3.10;;;23.10;48.00;;;;;;4981460;28;20554;-63
2023/10/12 00:54:27;;;;;;;3.50;3.30;;;23.10;48.00;;;;;;4989394;28;20947;-59
2023/10/12 00:57:02;;;;;;;3.70;2.90;;;23.10;48.10;;;;;;5007563;28;20507;-58
2023/10/12 00:59:31;;;;;;;3.30;3.10;;;23.10;48.00;;;;;;4997347;28;20566;-62
2023/10/12 01:02:01;;;;;;;3.23;3.03;;;23.10;48.10;;;;;;4996053;28;20467;-60
2023/10/12 01:04:27;;;;;;;4.03;3.77;;;23.10;48.10;;;;;;4998125;28;20466;-60
2023/10/12 01:06:59;;;;;;;3.43;3.23;;;23.10;48.10;;;;;;5000428;28;20961;-58
2023/10/12 01:09:54;;;;;;;4.10;3.80;;;23.10;48.10;;;;;;4998467;28;20460;-58
2023/10/12 01:12:14;;;;;;;5.33;3.07;;;23.10;48.10;;;;;;4988922;28;20463;-58
2023/10/12 01:14:51;;;;;;;3.60;3.40;;;23.10;48.10;;;;;;4982750;28;20503;-58
2023/10/12 01:17:23;;;;;;;4.23;3.57;;;23.10;48.10;;;;;;4983874;28;20219;-61
2023/10/12 01:19:51;;;;;;;3.40;3.20;;;23.10;48.20;;;;;;4995794;28;20539;-61
2023/10/12 01:22:25;;;;;;;3.37;3.07;;;23.10;48.10;;;;;;4982065;28;20496;-58
2023/10/12 01:27:21;;;;;;;3.50;3.30;;;23.10;48.10;;;;;;4991294;28;20556;-59
2023/10/12 01:29:47;;;;;;;3.53;3.30;;;23.10;48.00;;;;;;4989806;28;20547;-60
2023/10/12 01:34:39;;;;;;;3.30;3.10;;;23.10;48.10;;;;;;4989647;28;20590;-59
2023/10/12 01:37:22;;;;;;;3.33;3.13;;;23.10;48.10;;;;;;4981680;28;20356;-62
2023/10/12 01:47:55;;;;;;;3.53;3.33;;;23.10;48.10;;;;;;4982115;28;20472;-57
2023/10/12 01:50:21;;;;;;;3.53;3.33;;;23.10;48.10;;;;;;4994749;28;20551;-60
2023/10/12 01:52:48;;;;;;;3.27;3.07;;;23.10;48.00;;;;;;4994763;28;20493;-58
2023/10/12 01:55:18;;;;;;;3.33;3.10;;;23.10;48.10;;;;;;4986227;28;20482;-59
2023/10/12 01:57:51;;;;;;;3.43;3.23;;;23.10;48.10;;;;;;4988958;28;20483;-62
2023/10/12 02:00:23;;;;;;;3.63;3.40;;;23.10;48.00;;;;;;4997387;28;20462;-61
2023/10/12 02:03:00;;;;;;;3.23;3.07;;;23.10;48.00;;;;;;4982940;28;21124;-58
2023/10/12 02:05:29;;;;;;;4.60;3.70;;;23.10;48.00;;;;;;5005695;28;20455;-59
2023/10/12 02:07:56;;;;;;;3.10;2.80;;;23.10;48.00;;;;;;4987191;28;20460;-59
2023/10/12 02:10:24;;;;;;;2.93;2.73;;;23.10;48.10;;;;;;4984861;28;20607;-60
2023/10/12 02:12:53;;;;;;;3.73;3.53;;;23.10;48.10;;;;;;4991188;28;20501;-60
2023/10/12 02:15:20;;;;;;;3.57;3.27;;;23.10;48.00;;;;;;4985403;28;21005;-58
2023/10/12 02:17:49;;;;;;;3.63;3.43;;;23.10;48.00;;;;;;5000635;28;20564;-61
2023/10/12 02:20:18;;;;;;;3.00;2.90;;;23.10;48.00;;;;;;5004868;28;20557;-59
2023/10/12 02:22:44;;;;;;;3.70;3.50;;;23.10;48.00;;;;;;4985055;28;20481;-61
2023/10/12 02:27:42;;;;;;;3.67;3.47;;;23.10;48.00;;;;;;4989061;28;20462;-59
2023/10/12 02:30:18;;;;;;;4.03;3.63;;;23.00;48.00;;;;;;4990500;28;20444;-60
2023/10/12 02:32:46;;;;;;;3.17;2.97;;;23.10;48.00;;;;;;4998507;28;21399;-58
2023/10/12 02:35:13;;;;;;;4.00;3.80;;;23.10;48.00;;;;;;4992564;28;20473;-60
2023/10/12 02:37:39;;;;;;;3.53;3.33;;;23.00;48.00;;;;;;4993726;28;20599;-58
2023/10/12 02:40:12;;;;;;;3.60;3.40;;;23.10;48.80;;;;;;4982898;28;20483;-58
2023/10/12 02:42:38;;;;;;;3.30;3.10;;;23.10;48.00;;;;;;4983526;28;20326;-60
2023/10/12 02:45:27;;;;;;;3.77;3.20;;;23.00;48.10;;;;;;4995618;28;20566;-58
2023/10/12 02:47:52;;;;;;;3.37;3.17;;;23.00;48.10;;;;;;4989488;28;21001;-58
2023/10/12 02:50:27;;;;;;;3.27;3.00;;;23.00;48.00;;;;;;4986998;28;20484;-61
2023/10/12 02:52:53;;;;;;;3.40;3.20;;;23.00;48.00;;;;;;4985133;28;20226;-58
2023/10/12 02:55:33;;;;;;;3.00;2.83;;;23.10;48.10;;;;;;4981463;28;20483;-62
2023/10/12 02:58:06;;;;;;;3.90;3.70;;;23.00;48.10;;;;;;4986435;28;20465;-60
2023/10/12 03:00:36;;;;;;;4.07;3.70;;;23.00;48.10;;;;;;4996525;28;20481;-61
2023/10/12 03:03:08;;;;;;;3.37;3.17;;;23.00;48.10;;;;;;4992629;28;21352;-60
2023/10/12 03:05:46;;;;;;;4.00;3.70;;;23.00;48.10;;;;;;4985621;28;20460;-60
2023/10/12 03:08:17;;;;;;;3.50;3.20;;;23.00;48.10;;;;;;4978940;28;20490;-59
2023/10/12 03:13:26;;;;;;;3.70;3.50;;;23.00;48.10;;;;;;4990129;28;22280;-58
2023/10/12 03:16:02;;;;;;;3.80;3.60;;;23.00;48.10;;;;;;4980917;28;20564;-60
2023/10/12 03:18:28;;;;;;;3.30;3.10;;;23.00;48.10;;;;;;4988325;28;20463;-60
2023/10/12 03:21:11;;;;;;;3.40;3.20;;;23.00;48.10;;;;;;4983900;28;20461;-58
2023/10/12 03:23:38;;;;;;;3.40;3.20;;;23.00;48.10;;;;;;4985453;28;20231;-59
2023/10/12 03:26:16;;;;;;;3.27;3.07;;;23.00;48.10;;;;;;4986198;28;20498;-58
2023/10/12 03:28:46;;;;;;;3.90;3.63;;;23.00;48.10;;;;;;4978643;28;20538;-60
2023/10/12 03:31:33;;;;;;;3.43;3.20;;;23.00;48.10;;;;;;4983659;28;20468;-61
2023/10/12 03:34:00;;;;;;;3.50;3.30;;;23.00;48.20;;;;;;4985210;28;20564;-58
2023/10/12 03:36:31;;;;;;;3.90;3.60;;;23.00;48.10;;;;;;4978201;28;20472;-59
2023/10/12 03:41:54;;;;;;;3.70;3.50;;;23.00;48.10;;;;;;4990980;28;20492;-58
2023/10/12 03:47:01;;;;;;;4.37;4.07;;;23.00;48.10;;;;;;4984700;28;20625;-60
2023/10/12 03:51:58;;;;;;;3.93;3.67;;;23.00;48.10;;;;;;4982498;28;21010;-58
2023/10/12 03:54:31;;;;;;;3.53;3.33;;;23.00;48.10;;;;;;4981521;28;20342;-58
2023/10/12 03:58:05;;;;;;;3.37;3.17;;;23.00;48.80;;;;;;4983238;28;20472;-58
2023/10/12 04:02:54;;;;;;;3.30;3.10;;;23.00;48.10;;;;;;4984128;28;20480;-62
2023/10/12 04:05:34;;;;;;;4.13;3.73;;;23.00;48.20;;;;;;4993352;28;20464;-61
2023/10/12 04:08:00;;;;;;;3.40;3.20;;;23.00;48.20;;;;;;4983344;28;20497;-60
2023/10/12 04:18:41;;;;;;;3.97;3.67;;;23.00;48.20;;;;;;4996257;28;20501;-58
2023/10/12 04:21:08;;;;;;;4.00;3.80;;;23.00;48.20;;;;;;4982034;28;23817;-62
2023/10/12 04:28:39;;;;;;;3.40;3.20;;;23.00;48.00;;;;;;4987517;28;20225;-61
2023/10/12 04:33:55;;;;;;;4.37;3.97;;;23.00;47.80;;;;;;4977262;28;21975;-59
2023/10/12 04:41:38;;;;;;;4.10;3.90;;;23.10;47.80;;;;;;4976372;28;20575;-58
2023/10/12 04:46:51;;;;;;;3.90;3.70;;;23.10;47.90;;;;;;4983618;28;20539;-65
2023/10/12 04:51:53;;;;;;;3.77;3.57;;;23.10;47.80;;;;;;4977648;28;20461;-59
2023/10/12 04:54:28;;;;;;;3.70;3.50;;;23.10;47.80;;;;;;4985740;28;20481;-60
2023/10/12 04:57:10;;;;;;;3.50;3.30;;;23.10;47.90;;;;;;4993637;28;20523;-63
2023/10/12 05:02:22;;;;;;;3.70;3.50;;;23.10;47.80;;;;;;4982467;28;20555;-58
2023/10/12 05:09:49;;;;;;;3.77;3.57;;;23.10;47.80;;;;;;4988388;28;20212;-59
2023/10/12 05:12:15;;;;;;;3.63;3.33;;;23.10;47.80;;;;;;4990128;28;20496;-58
2023/10/12 05:14:41;;;;;;;5.90;3.40;;;23.10;47.70;;;;;;4992026;28;21009;-62
2023/10/12 05:17:08;;;;;;;4.13;3.83;;;23.10;47.80;;;;;;4991699;28;21433;-60
2023/10/12 05:19:34;;;;;;;3.90;3.70;;;23.10;47.80;;;;;;4993418;28;20285;-57
2023/10/12 05:21:59;;;;;;;3.97;3.67;;;23.10;47.70;;;;;;5010473;28;20496;-59
2023/10/12 05:24:25;;;;;;;4.03;3.73;;;23.10;47.80;;;;;;5006500;28;20481;-57
2023/10/12 05:27:10;;;;;;;3.87;3.57;;;23.10;47.80;;;;;;4998612;28;20220;-61
2023/10/12 05:29:38;;;;;;;4.27;3.97;;;23.10;47.80;;;;;;4989949;28;20269;-59
2023/10/12 05:33:06;;;;;;;4.00;3.80;;;23.10;47.80;;;;;;4997942;28;20527;-58
2023/10/12 05:34:59;;;;;;;3.30;3.10;;;23.10;47.80;;;;;;4992267;28;20500;-57
2023/10/12 05:37:26;;;;;;;4.07;3.77;;;23.10;47.80;;;;;;4996885;28;20836;-57
2023/10/12 05:39:56;;;;;;;3.30;3.10;;;23.10;47.80;;;;;;5001464;28;20237;-59
2023/10/12 05:42:22;;;;;;;4.07;3.87;;;23.10;47.80;;;;;;5009157;28;20519;-57
2023/10/12 05:44:49;;;;;;;3.90;3.60;;;23.10;47.80;;;;;;4993845;28;20515;-57
2023/10/12 05:47:28;;;;;;;3.70;3.30;;;23.10;47.80;;;;;;4986197;28;20473;-57
2023/10/12 05:49:54;;;;;;;5.07;4.77;;;23.10;47.80;;;;;;4996366;28;20620;-57
2023/10/12 05:52:20;;;;;;;4.63;4.27;;;23.10;47.90;;;;;;4998689;28;20433;-57
2023/10/12 05:54:45;;;;;;;4.57;4.37;;;23.10;47.80;;;;;;4986925;28;20243;-58
2023/10/12 05:57:20;;;;;;;4.50;4.20;;;23.10;47.90;;;;;;4994194;28;20476;-60
2023/10/12 05:59:49;;;;;;;4.47;4.27;;;23.10;47.90;;;;;;4991907;28;20219;-59
2023/10/12 06:02:17;;;;;;;5.77;5.10;;;23.10;47.80;;;;;;4991372;28;20496;-56
2023/10/12 06:04:43;;;;;;;4.67;4.40;;;23.10;47.80;;;;;;4988970;28;20469;-58
2023/10/12 06:07:10;;;;;;;5.37;4.97;;;23.10;47.90;;;;;;4991746;28;20510;-59
2023/10/12 06:09:37;;;;;;;4.93;4.63;;;23.10;47.90;;;;;;4990627;28;20454;-60
2023/10/12 06:12:06;;;;;;;5.80;5.30;;;23.10;47.90;;;;;;4990355;28;20474;-59
2023/10/12 06:14:33;;;;;;;6.93;6.33;;;23.10;47.90;;;;;;4988106;28;20821;-60
2023/10/12 06:17:02;;;;;;;5.70;5.20;;;23.10;47.90;;;;;;4987854;28;20461;-57
2023/10/12 06:19:31;;;;;;;5.60;5.30;;;23.10;47.90;;;;;;4992546;28;20452;-61
2023/10/12 06:21:59;;;;;;;5.53;5.23;;;23.10;47.90;;;;;;4986027;28;20759;-58
2023/10/12 06:24:33;;;;;;;6.37;5.87;;;23.10;47.90;;;;;;5005573;28;20460;-58
2023/10/12 06:29:54;;;;;;;6.50;6.00;;;23.10;48.80;;;;;;4986939;28;20460;-59
2023/10/12 06:32:25;;;;;;;6.17;5.77;;;23.10;48.00;;;;;;4990894;28;20669;-58
2023/10/12 06:35:12;;;;;;;5.63;5.30;;;23.10;48.00;;;;;;4987171;28;20566;-56
2023/10/12 06:43:57;;;;;;;6.23;5.80;;;23.10;48.00;;;;;;4993537;28;20468;-58
2023/10/12 06:45:51;;;;;;;5.90;5.50;;;23.10;48.00;;;;;;4987675;28;20472;-58
2023/10/12 06:48:23;;;;;;;5.83;5.33;;;23.10;48.00;;;;;;4988489;28;20462;-57
2023/10/12 06:50:53;;;;;;;5.80;5.50;;;23.10;48.00;;;;;;5004485;28;20507;-57
2023/10/12 06:53:24;;;;;;;5.60;5.20;;;23.10;48.10;;;;;;5007556;28;20478;-59
2023/10/12 06:55:58;;;;;;;7.13;6.60;;;23.10;48.00;;;;;;4993050;28;20531;-58
2023/10/12 06:58:36;;;;;;;6.10;5.60;;;23.10;48.10;;;;;;4979106;28;20492;-60
2023/10/12 07:01:26;;;;;;;6.30;5.80;;;23.10;48.10;;;;;;5000684;28;20539;-57
2023/10/12 07:03:55;;;;;;;6.70;6.20;;;23.10;48.50;;;;;;4995221;28;23002;-59
2023/10/12 07:06:21;;;;;;;5.67;5.27;;;23.10;48.00;;;;;;4988823;28;20461;-58
2023/10/12 07:08:46;;;;;;;6.53;6.10;;;23.10;48.00;;;;;;4988336;28;20477;-61
2023/10/12 07:11:20;;;;;;;5.93;5.53;;;23.10;48.10;;;;;;4980939;28;20235;-60
2023/10/12 07:13:46;;;;;;;6.10;5.60;;;23.10;48.10;;;;;;4971700;28;20219;-59
2023/10/12 07:16:20;;;;;;;6.90;6.40;;;23.10;48.10;;;;;;4974687;28;20499;-59
2023/10/12 07:18:49;;;;;;;6.73;6.17;;;23.10;48.10;;;;;;4990532;28;20511;-61
2023/10/12 07:21:21;;;;;;;7.13;6.47;;;23.10;48.10;;;;;;4980364;28;20456;-61
2023/10/12 07:23:54;;;;;;;6.23;5.80;;;23.10;48.10;;;;;;4976424;28;20497;-58
2023/10/12 07:26:21;;;;;;;6.23;5.73;;;23.10;48.10;;;;;;4977922;28;20476;-58
2023/10/12 07:28:49;;;;;;;6.93;6.33;;;23.10;48.10;;;;;;4968742;28;20468;-59
2023/10/12 07:41:55;;;;;;;7.60;5.50;;;23.10;48.10;;;;;;4977384;28;20500;-57
2023/10/12 07:44:27;;;;;;;6.27;5.67;;;23.10;48.20;;;;;;4973217;28;21502;-60
2023/10/12 07:46:56;;;;;;;6.80;6.20;;;23.10;48.10;;;;;;4972364;28;20465;-57
2023/10/12 07:49:36;;;;;;;7.40;6.70;;;23.10;48.10;;;;;;4972958;28;20465;-60
2023/10/12 07:54:47;;;;;;;6.97;6.37;;;23.10;48.20;;;;;;4972999;28;20513;-57
2023/10/12 07:57:14;;;;;;;7.13;6.43;;;23.10;48.20;;;;;;4972691;28;20473;-60
2023/10/12 08:00:41;;;;;;;6.30;5.70;;;23.10;48.20;;;;;;4972380;28;20465;-58
2023/10/12 08:05:24;;;;;;;6.37;5.87;;;23.10;48.20;;;;;;4970284;28;20511;-62
2023/10/12 08:21:31;;;;;;;5.60;5.20;;;23.10;48.30;;;;;;4989854;28;20482;-59
2023/10/12 08:31:48;;;;;;;7.20;6.60;;;23.10;48.20;;;;;;4994634;28;20218;-59
2023/10/12 08:39:39;;;;;;;6.00;5.60;;;23.10;48.20;;;;;;4979977;28;20477;-60
2023/10/12 08:44:51;;;;;;;6.77;6.17;;;23.10;48.30;;;;;;4994565;28;20814;-58
2023/10/12 08:52:30;;;;;;;5.77;5.37;;;23.10;48.30;;;;;;4983874;28;20460;-59
2023/10/12 08:55:04;;;;;;;6.57;6.00;;;23.10;48.30;;;;;;4979799;28;20468;-58
2023/10/12 08:57:57;;;;;;;6.03;5.53;;;23.10;48.30;;;;;;4980396;28;20838;-60
2023/10/12 09:03:25;;;;;;;6.17;5.77;;;23.10;48.30;;;;;;4976658;28;21330;-58
2023/10/12 09:05:51;;;;;;;5.73;5.33;;;23.10;48.40;;;;;;4981382;28;20945;-59
2023/10/12 09:11:02;;;;;;;6.00;5.60;;;23.10;48.40;;;;;;4978583;28;21047;-62
2023/10/12 09:13:35;;;;;;;6.17;5.83;;;23.10;48.50;;;;;;4978384;28;20461;-60
2023/10/12 09:16:03;;;;;;;6.20;5.70;;;23.10;48.30;;;;;;4977990;28;20563;-61
2023/10/12 09:18:33;;;;;;;6.47;5.70;;;23.10;48.30;;;;;;4978741;28;20992;-64
2023/10/12 09:23:46;;;;;;;5.70;5.10;;;23.10;48.40;;;;;;4975651;28;20868;-58
2023/10/12 09:26:16;;;;;;;6.40;6.00;;;23.10;48.40;;;;;;4984254;28;20510;-60
2023/10/12 09:36:53;;;;;;;5.80;5.37;;;23.10;48.50;;;;;;4994453;28;20468;-64
2023/10/12 09:39:25;;;;;;;6.03;5.53;;;23.10;48.40;;;;;;4981876;28;20465;-61
2023/10/12 09:42:09;;;;;;;6.00;5.60;;;23.10;48.40;;;;;;4979829;28;20481;-58
2023/10/12 09:44:39;;;;;;;5.50;5.10;;;23.10;48.60;;;;;;4990055;28;20571;-64
2023/10/12 09:47:11;;;;;;;6.37;5.77;;;23.10;48.50;;;;;;4980424;28;20530;-64
2023/10/12 09:49:44;;;;;;;6.37;5.60;;;23.10;48.50;;;;;;4996884;28;21384;-63
2023/10/12 09:52:13;;;;;;;5.30;5.00;;;23.10;48.50;;;;;;4978979;28;20458;-64
2023/10/12 09:55:06;;;;;;;6.43;6.03;;;23.10;48.50;;;;;;4985205;28;20477;-59
2023/10/12 09:57:36;;;;;;;4.50;4.30;;;23.10;48.50;;;;;;4986769;28;20817;-61
2023/10/12 10:02:49;;;;;;;5.13;4.73;;;23.10;48.50;;;;;;4987995;28;21667;-65
2023/10/12 10:07:55;;;;;;;6.70;6.20;;;23.10;48.60;;;;;;4984000;28;20480;-62
2023/10/12 10:10:31;;;;;;;5.03;4.63;;;23.10;48.60;;;;;;4990484;28;21835;-64
2023/10/12 10:13:00;;;;;;;5.13;4.83;;;23.10;48.60;;;;;;4991010;28;20473;-58
2023/10/12 10:15:36;;;;;;;6.30;5.80;;;23.10;48.50;;;;;;4986032;28;21055;-60
2023/10/12 10:18:04;;;;;;;6.03;5.60;;;23.10;48.50;;;;;;5001228;28;20460;-63
2023/10/12 10:23:03;;;;;;;5.80;5.30;;;23.10;48.60;;;;;;4992596;28;20456;-59
2023/10/12 10:25:42;;;;;;;4.90;4.60;;;23.10;48.60;;;;;;4988078;28;20223;-62
2023/10/12 10:28:13;;;;;;;5.50;5.17;;;23.10;48.60;;;;;;4981976;28;21420;-61
2023/10/12 10:30:49;;;;;;;4.40;4.10;;;23.10;48.60;;;;;;4980852;28;20469;-63
2023/10/12 10:33:20;;;;;;;5.40;4.97;;;23.10;49.30;;;;;;4983335;28;20460;-64
2023/10/12 10:35:58;;;;;;;5.60;5.30;;;23.10;49.40;;;;;;4997885;28;20476;-61
2023/10/12 10:38:35;;;;;;;5.27;4.97;;;23.10;48.60;;;;;;4975646;28;20546;-61
2023/10/12 10:41:18;;;;;;;5.60;5.30;;;23.10;48.70;;;;;;4980769;28;22230;-62
2023/10/12 10:43:44;;;;;;;4.90;4.60;;;23.10;48.60;;;;;;4976840;28;20464;-63
2023/10/12 10:46:10;;;;;;;5.10;4.80;;;23.10;48.70;;;;;;4979185;28;20480;-64
2023/10/12 10:48:38;;;;;;;5.40;5.00;;;23.10;48.70;;;;;;4980879;28;20532;-62
2023/10/12 10:51:11;;;;;;;5.27;4.93;;;23.10;48.60;;;;;;4991927;28;20930;-63
2023/10/12 10:53:38;;;;;;;5.30;4.90;;;23.10;48.80;;;;;;4990576;28;20473;-64
2023/10/12 10:56:16;;;;;;;5.40;5.10;;;23.10;48.70;;;;;;4973608;28;20480;-59
2023/10/12 10:58:46;;;;;;;5.37;4.90;;;23.10;48.60;;;;;;4992058;28;20457;-63
2023/10/12 11:01:15;;;;;;;5.30;4.93;;;23.10;48.70;;;;;;4987303;28;20464;-57
2023/10/12 11:03:42;;;;;;;4.77;4.57;;;23.10;48.60;;;;;;4991679;28;20555;-61
2023/10/12 11:06:21;;;;;;;6.10;4.90;;;23.10;48.70;;;;;;4991911;28;21040;-61
2023/10/12 11:09:06;;;;;;;5.77;5.47;;;23.10;48.60;;;;;;4991003;28;20862;-59
2023/10/12 11:11:38;;;;;;;5.17;4.87;;;23.10;48.70;;;;;;5000965;28;20467;-59
2023/10/12 11:14:10;;;;;;;5.10;4.80;;;23.10;48.70;;;;;;4995731;28;20461;-60
2023/10/12 11:16:37;;;;;;;4.77;4.47;;;23.10;48.80;;;;;;5002834;28;20464;-61
2023/10/12 11:19:08;;;;;;;5.10;4.73;;;23.10;48.70;;;;;;5008783;28;21290;-59
2023/10/12 11:21:34;;;;;;;5.97;5.50;;;23.10;48.80;;;;;;4994674;28;20459;-62
2023/10/12 11:24:01;;;;;;;5.13;4.83;;;23.10;48.70;;;;;;4982688;28;20527;-64
2023/10/12 11:26:27;;;;;;;5.27;4.97;;;23.10;48.70;;;;;;4967867;28;20274;-61
2023/10/12 11:29:04;;;;;;;5.60;5.20;;;23.10;48.70;;;;;;4981756;28;20488;-60
2023/10/12 11:31:30;;;;;;;5.17;4.87;;;23.10;48.70;;;;;;4982031;28;20476;-63
2023/10/12 11:33:58;;;;;;;5.43;5.03;;;23.10;48.70;;;;;;4981684;28;20446;-63
2023/10/12 11:36:24;;;;;;;4.90;4.60;;;23.10;48.70;;;;;;4972798;28;21625;-63
2023/10/12 11:39:10;;;;;;;5.37;4.87;;;23.10;48.70;;;;;;4976507;28;20476;-61
2023/10/12 11:41:36;;;;;;;5.30;4.83;;;23.10;48.70;;;;;;4974787;28;20501;-62
2023/10/12 11:44:05;;;;;;;4.80;4.60;;;23.10;48.70;;;;;;4978654;28;20560;-59
2023/10/12 11:46:44;;;;;;;4.50;4.30;;;23.10;48.80;;;;;;4997384;28;20265;-61
2023/10/12 11:49:13;;;;;;;5.27;4.97;;;23.10;48.80;;;;;;4974342;28;20460;-63
2023/10/12 11:51:50;;;;;;;4.33;4.03;;;23.10;48.80;;;;;;4973872;28;20531;-63
2023/10/12 11:54:19;;;;;;;4.43;4.13;;;23.10;48.80;;;;;;4991786;28;20457;-59
2023/10/12 11:56:45;;;;;;;4.10;3.90;;;23.10;48.80;;;;;;4988381;28;20465;-63
2023/10/12 11:59:22;;;;;;;4.90;4.47;;;23.10;48.80;;;;;;4988760;28;20498;-59
2023/10/12 12:01:54;;;;;;;4.30;4.10;;;23.10;48.80;;;;;;4988936;28;20448;-61
2023/10/12 12:04:30;;;;;;;4.03;3.83;;;23.10;48.80;;;;;;5004522;28;20469;-58
2023/10/12 12:06:56;;;;;;;3.33;3.13;;;23.10;48.80;;;;;;4979953;28;20472;-61
2023/10/12 12:09:23;;;;;;;4.03;3.83;;;23.10;48.80;;;;;;4984101;28;20456;-59
2023/10/12 12:11:49;;;;;;;3.83;3.63;;;23.10;48.90;;;;;;4988109;28;20234;-64
2023/10/12 12:14:14;;;;;;;3.60;3.40;;;23.10;48.80;;;;;;4993273;28;20689;-60
2023/10/12 12:16:40;;;;;;;4.47;4.17;;;23.10;48.80;;;;;;4987447;28;20870;-60
2023/10/12 12:19:05;;;;;;;3.83;3.53;;;23.10;48.80;;;;;;4998574;28;20224;-57
2023/10/12 12:21:34;;;;;;;4.20;3.93;;;23.10;48.80;;;;;;4991987;28;20228;-63
2023/10/12 12:26:49;;;;;;;3.27;3.07;;;23.10;48.90;;;;;;4992201;28;20467;-63
2023/10/12 12:29:16;;;;;;;3.37;3.17;;;23.10;48.80;;;;;;4985821;28;20767;-58
2023/10/12 12:31:41;;;;;;;4.00;3.80;;;23.10;49.70;;;;;;4977231;28;20474;-62
2023/10/12 12:34:07;;;;;;;3.60;3.40;;;23.10;48.90;;;;;;4980302;28;20847;-63
2023/10/12 12:36:33;;;;;;;3.90;3.60;;;23.10;49.60;;;;;;4974566;28;21231;-63
2023/10/12 12:39:10;;;;;;;3.07;2.87;;;23.10;48.80;;;;;;4976513;28;20241;-60
2023/10/12 12:41:36;;;;;;;3.60;3.40;;;23.10;48.90;;;;;;4992983;28;20332;-62
2023/10/12 12:44:02;;;;;;;3.00;2.80;;;23.10;48.90;;;;;;4977965;28;20469;-61
2023/10/12 12:46:29;;;;;;;3.50;3.30;;;23.10;48.80;;;;;;4978855;28;20506;-63
2023/10/12 12:48:55;;;;;;;3.20;3.00;;;23.10;48.80;;;;;;4988022;28;20908;-63
2023/10/12 12:51:21;;;;;;;3.03;2.83;;;23.10;48.80;;;;;;4990367;28;20464;-59
2023/10/12 12:53:48;;;;;;;3.13;2.93;;;23.10;48.90;;;;;;4991118;28;20263;-58
2023/10/12 12:56:15;;;;;;;3.00;2.80;;;23.10;48.90;;;;;;4993504;28;20494;-60
2023/10/12 12:58:47;;;;;;;3.20;3.00;;;23.10;48.90;;;;;;4980350;28;21107;-61
2023/10/12 13:01:23;;;;;;;3.60;3.40;;;23.10;48.90;;;;;;4992619;28;20836;-63
2023/10/12 13:03:55;;;;;;;3.50;3.30;;;23.10;48.90;;;;;;4989959;28;20456;-64
